createdAt,value
2017-12-11T05:00:31.561Z,0.91
2017-12-11T05:00:57.060Z,0.88
2017-12-11T05:01:22.568Z,0.96
2017-12-11T05:01:48.121Z,0.96
2017-12-11T05:02:13.572Z,0.98
2017-12-11T05:02:39.100Z,0.92
2017-12-11T05:03:04.599Z,0.87
2017-12-11T05:03:30.076Z,0.83
2017-12-11T05:03:55.553Z,0.84
2017-12-11T05:04:21.055Z,0.81
2017-12-11T05:04:46.564Z,0.84
2017-12-11T05:05:12.059Z,0.86
2017-12-11T05:05:37.603Z,0.8
2017-12-11T05:06:03.058Z,0.83
2017-12-11T05:06:28.592Z,0.81
2017-12-11T05:06:54.051Z,0.83
2017-12-11T05:07:19.549Z,0.84
2017-12-11T05:07:45.016Z,0.81
2017-12-11T05:08:10.507Z,0.8
2017-12-11T05:08:36.019Z,0.81
2017-12-11T05:09:01.528Z,0.77
2017-12-11T05:09:26.990Z,0.81
2017-12-11T05:09:52.491Z,0.81
2017-12-11T05:10:17.985Z,0.83
2017-12-11T05:10:43.491Z,0.86
2017-12-11T05:11:09.050Z,0.81
2017-12-11T05:11:34.579Z,0.86
2017-12-11T05:12:00.024Z,0.87
2017-12-11T05:12:25.507Z,0.86
2017-12-11T05:12:50.969Z,0.83
2017-12-11T05:13:39.308Z,0.83
2017-12-11T05:14:04.750Z,0.76
2017-12-11T05:14:30.269Z,0.84
2017-12-11T05:14:55.741Z,0.8
2017-12-11T05:15:21.231Z,0.88
2017-12-11T05:15:46.745Z,0.8
2017-12-11T05:16:12.216Z,0.77
2017-12-11T05:16:37.673Z,0.77
2017-12-11T05:17:03.143Z,0.8
2017-12-11T05:17:28.648Z,0.78
2017-12-11T05:17:54.133Z,0.77
2017-12-11T05:18:19.623Z,0.8
2017-12-11T05:18:45.080Z,0.73
2017-12-11T05:19:10.539Z,0.78
2017-12-11T05:19:36.014Z,0.77
2017-12-11T05:20:01.466Z,0.8
2017-12-11T05:20:26.973Z,0.78
2017-12-11T05:20:52.456Z,0.81
2017-12-11T05:21:17.963Z,0.73
2017-12-11T05:21:43.433Z,0.77
2017-12-11T05:22:08.933Z,0.78
2017-12-11T05:22:34.410Z,0.83
2017-12-11T05:22:59.845Z,0.84
2017-12-11T05:23:25.356Z,0.77
2017-12-11T05:23:50.820Z,0.77
2017-12-11T05:24:16.478Z,0.78
2017-12-11T05:24:41.962Z,0.78
2017-12-11T05:25:07.428Z,0.74
2017-12-11T05:25:32.896Z,0.88
2017-12-11T05:25:58.384Z,0.78
2017-12-11T05:26:23.867Z,0.78
2017-12-11T05:26:49.404Z,0.83
2017-12-11T05:27:14.904Z,0.88
2017-12-11T05:27:40.390Z,0.81
2017-12-11T05:28:05.874Z,0.77
2017-12-11T05:28:31.386Z,0.74
2017-12-11T05:28:56.957Z,0.86
2017-12-11T05:29:22.478Z,0.81
2017-12-11T05:29:47.927Z,0.84
2017-12-11T05:30:13.439Z,0.87
2017-12-11T05:30:38.881Z,0.84
2017-12-11T05:31:04.360Z,0.86
2017-12-11T05:31:29.878Z,0.76
2017-12-11T05:31:55.403Z,0.74
2017-12-11T05:32:20.895Z,0.77
2017-12-11T05:32:46.420Z,0.8
2017-12-11T05:33:11.905Z,0.84
2017-12-11T05:33:37.430Z,0.86
2017-12-11T05:34:02.919Z,0.83
2017-12-11T05:34:28.383Z,0.88
2017-12-11T05:34:53.835Z,0.96
2017-12-11T05:35:19.324Z,0.96
2017-12-11T05:35:44.781Z,0.95
2017-12-11T05:36:10.301Z,0.98
2017-12-11T05:36:35.820Z,0.96
2017-12-11T05:37:01.331Z,0.87
2017-12-11T05:37:26.800Z,0.99
2017-12-11T05:37:52.291Z,0.94
2017-12-11T05:38:17.783Z,1.01
2017-12-11T05:38:43.244Z,0.94
2017-12-11T05:39:08.747Z,0.94
2017-12-11T05:39:34.206Z,0.98
2017-12-11T05:39:59.687Z,0.87
2017-12-11T05:40:25.176Z,1.01
2017-12-11T05:40:50.625Z,0.98
2017-12-11T05:41:16.114Z,0.92
2017-12-11T05:41:41.592Z,1.05
2017-12-11T05:42:07.033Z,0.84
2017-12-11T05:42:32.540Z,0.88
2017-12-11T05:42:58.007Z,0.86
2017-12-11T05:43:23.462Z,0.92
2017-12-11T05:43:48.934Z,0.88
2017-12-11T05:44:14.385Z,1.02
2017-12-11T05:44:39.851Z,0.94
2017-12-11T05:45:05.331Z,0.88
2017-12-11T05:45:30.849Z,0.94
2017-12-11T05:45:56.325Z,0.96
2017-12-11T05:46:21.799Z,0.95
2017-12-11T05:46:47.326Z,0.91
2017-12-11T05:47:12.776Z,0.96
2017-12-11T05:47:38.241Z,0.91
2017-12-11T05:48:03.773Z,0.98
2017-12-11T05:48:29.254Z,1.01
2017-12-11T05:48:54.742Z,0.92
2017-12-11T05:49:20.242Z,0.88
2017-12-11T05:49:45.678Z,0.96
2017-12-11T05:50:11.152Z,0.86
2017-12-11T05:50:36.612Z,1.01
2017-12-11T05:51:02.136Z,0.92
2017-12-11T05:51:27.620Z,0.92
2017-12-11T05:51:53.048Z,0.91
2017-12-11T05:52:18.560Z,0.84
2017-12-11T05:52:44.039Z,0.92
2017-12-11T05:53:09.539Z,1.01
2017-12-11T05:53:35.056Z,1.02
2017-12-11T05:54:00.503Z,0.86
2017-12-11T05:54:25.999Z,0.84
2017-12-11T05:54:51.507Z,1.02
2017-12-11T05:55:16.969Z,0.91
2017-12-11T05:55:42.447Z,0.87
2017-12-11T05:56:07.934Z,1.06
2017-12-11T05:56:33.454Z,0.96
2017-12-11T05:56:58.958Z,0.86
2017-12-11T05:57:24.414Z,0.96
2017-12-11T05:57:49.877Z,1.01
2017-12-11T05:58:15.463Z,0.91
2017-12-11T05:58:40.959Z,0.84
2017-12-11T05:59:06.430Z,0.95
2017-12-11T05:59:31.902Z,0.98
2017-12-11T05:59:57.368Z,0.99
2017-12-11T06:00:22.873Z,0.94
2017-12-11T06:00:48.367Z,0.92
2017-12-11T06:01:13.857Z,0.92
2017-12-11T06:01:39.370Z,0.96
2017-12-11T06:02:04.822Z,0.92
2017-12-11T06:02:30.338Z,1.01
2017-12-11T06:02:55.774Z,1.01
2017-12-11T06:03:21.258Z,0.95
2017-12-11T06:03:46.714Z,0.95
2017-12-11T06:04:12.176Z,0.95
2017-12-11T06:04:37.635Z,1.05
2017-12-11T06:05:03.092Z,0.98
2017-12-11T06:05:28.550Z,0.98
2017-12-11T06:05:54.068Z,0.95
2017-12-11T06:06:19.512Z,0.98
2017-12-11T06:06:44.971Z,0.96
2017-12-11T06:07:10.448Z,0.95
2017-12-11T06:07:35.920Z,0.98
2017-12-11T06:08:01.362Z,0.95
2017-12-11T06:08:26.865Z,0.95
2017-12-11T06:08:52.315Z,0.95
2017-12-11T06:09:17.747Z,1.01
2017-12-11T06:09:43.257Z,1.01
2017-12-11T06:10:08.748Z,0.99
2017-12-11T06:10:34.219Z,0.92
2017-12-11T06:10:59.640Z,0.96
2017-12-11T06:11:25.107Z,0.95
2017-12-11T06:11:50.576Z,0.96
2017-12-11T06:12:16.221Z,1.04
2017-12-11T06:12:41.722Z,0.88
2017-12-11T06:13:07.134Z,0.99
2017-12-11T06:13:32.614Z,0.95
2017-12-11T06:13:58.082Z,1.01
2017-12-11T06:14:23.576Z,0.98
2017-12-11T06:14:49.010Z,1.01
2017-12-11T06:15:14.478Z,1.02
2017-12-11T06:15:40.004Z,0.87
2017-12-11T06:16:05.436Z,1.02
2017-12-11T06:16:30.900Z,1.04
2017-12-11T06:16:56.381Z,0.92
2017-12-11T06:17:21.857Z,0.92
2017-12-11T06:17:47.308Z,0.92
2017-12-11T06:18:12.791Z,0.92
2017-12-11T06:18:38.279Z,0.94
2017-12-11T06:19:03.792Z,0.92
2017-12-11T06:19:29.261Z,0.88
2017-12-11T06:19:54.705Z,0.96
2017-12-11T06:20:20.230Z,0.99
2017-12-11T06:20:45.667Z,0.92
2017-12-11T06:21:11.173Z,1.01
2017-12-11T06:21:36.624Z,0.98
2017-12-11T06:22:02.061Z,0.92
2017-12-11T06:22:27.542Z,0.98
2017-12-11T06:22:53.033Z,0.8
2017-12-11T06:23:18.567Z,0.83
2017-12-11T06:23:44.016Z,0.86
2017-12-11T06:24:09.499Z,0.84
2017-12-11T06:24:34.910Z,0.95
2017-12-11T06:25:00.425Z,1.04
2017-12-11T06:25:25.934Z,0.92
2017-12-11T06:25:51.418Z,0.92
2017-12-11T06:26:16.874Z,0.78
2017-12-11T06:26:42.358Z,0.99
2017-12-11T06:27:07.866Z,0.91
2017-12-11T06:27:33.366Z,0.95
2017-12-11T06:27:58.795Z,0.96
2017-12-11T06:28:24.561Z,0.87
2017-12-11T06:29:28.129Z,0.88
2017-12-11T06:29:53.620Z,0.94
2017-12-11T06:30:19.093Z,0.94
2017-12-11T06:30:44.570Z,0.94
2017-12-11T06:31:10.059Z,0.91
2017-12-11T06:31:35.530Z,0.94
2017-12-11T06:32:34.013Z,0.88
2017-12-11T06:32:59.493Z,0.92
2017-12-11T06:33:24.970Z,0.83
2017-12-11T06:33:50.505Z,0.92
2017-12-11T06:34:16.003Z,0.88
2017-12-11T06:34:41.435Z,0.95
2017-12-11T06:35:06.929Z,0.84
2017-12-11T06:35:32.398Z,0.94
2017-12-11T06:35:57.834Z,0.91
2017-12-11T06:36:23.339Z,0.84
2017-12-11T06:36:48.902Z,0.91
2017-12-11T06:37:14.374Z,0.84
2017-12-11T06:38:23.065Z,0.81
2017-12-11T06:38:48.568Z,0.8
2017-12-11T06:39:14.038Z,0.83
2017-12-11T06:39:39.499Z,0.92
2017-12-11T06:40:05.111Z,0.91
2017-12-11T06:40:30.493Z,0.86
2017-12-11T06:40:56.022Z,0.87
2017-12-11T06:41:21.511Z,0.84
2017-12-11T06:42:14.940Z,0.84
2017-12-11T06:42:40.463Z,0.92
2017-12-11T06:43:05.908Z,0.86
2017-12-11T06:43:31.361Z,0.95
2017-12-11T06:43:56.820Z,0.98
2017-12-11T06:44:22.327Z,0.96
2017-12-11T06:44:47.749Z,1.01
2017-12-11T06:45:13.221Z,0.95
2017-12-11T06:45:38.734Z,0.88
2017-12-11T06:46:04.176Z,0.87
2017-12-11T06:46:29.650Z,0.94
2017-12-11T06:47:33.242Z,0.86
2017-12-11T06:47:58.744Z,0.86
2017-12-11T06:48:24.216Z,0.84
2017-12-11T06:48:49.681Z,0.83
2017-12-11T06:49:15.157Z,0.96
2017-12-11T06:49:40.608Z,0.88
2017-12-11T06:50:06.053Z,0.95
2017-12-11T06:50:31.547Z,0.96
2017-12-11T06:50:57.017Z,0.88
2017-12-11T06:51:22.488Z,0.86
2017-12-11T06:51:47.960Z,0.84
2017-12-11T06:52:13.413Z,0.87
2017-12-11T06:52:38.865Z,0.98
2017-12-11T06:53:28.012Z,0.86
2017-12-11T06:53:53.486Z,0.86
2017-12-11T06:54:18.968Z,0.91
2017-12-11T06:54:44.422Z,0.86
2017-12-11T06:55:09.924Z,0.86
2017-12-11T06:55:35.410Z,0.83
2017-12-11T06:56:00.896Z,0.94
2017-12-11T06:56:26.398Z,0.81
2017-12-11T06:56:51.890Z,0.91
2017-12-11T06:57:17.468Z,0.92
2017-12-11T06:57:42.902Z,0.94
2017-12-11T06:58:08.464Z,0.95
2017-12-11T06:58:33.950Z,0.91
2017-12-11T06:58:59.475Z,0.94
2017-12-11T06:59:24.945Z,0.95
2017-12-11T06:59:50.412Z,0.95
2017-12-11T07:00:15.911Z,0.91
2017-12-11T07:00:41.394Z,0.91
2017-12-11T07:01:06.830Z,0.95
2017-12-11T07:01:32.329Z,0.92
2017-12-11T07:02:35.943Z,0.88
2017-12-11T07:03:01.438Z,1.01
2017-12-11T07:03:26.922Z,0.91
2017-12-11T07:03:52.562Z,0.96
2017-12-11T07:04:18.045Z,0.88
2017-12-11T07:04:43.602Z,0.86
2017-12-11T07:05:09.099Z,0.92
2017-12-11T07:05:34.619Z,0.94
2017-12-11T07:06:00.170Z,0.99
2017-12-11T07:06:48.858Z,0.98
2017-12-11T07:07:14.371Z,0.92
2017-12-11T07:07:39.933Z,0.99
2017-12-11T07:08:05.378Z,0.86
2017-12-11T07:08:59.015Z,0.98
2017-12-11T07:09:24.605Z,0.95
2017-12-11T07:09:50.154Z,0.96
2017-12-11T07:10:15.829Z,0.95
2017-12-11T07:10:41.427Z,0.96
2017-12-11T07:11:07.060Z,0.91
2017-12-11T07:11:32.532Z,0.95
2017-12-11T07:11:58.087Z,0.94
2017-12-11T07:12:23.585Z,0.92
2017-12-11T07:12:49.048Z,0.98
2017-12-11T07:13:14.529Z,0.95
2017-12-11T07:13:40.003Z,0.87
2017-12-11T07:14:05.496Z,0.84
2017-12-11T07:14:30.973Z,0.94
2017-12-11T07:14:56.448Z,0.88
2017-12-11T07:15:21.935Z,0.91
2017-12-11T07:15:47.427Z,0.96
2017-12-11T07:16:12.941Z,0.88
2017-12-11T07:16:38.381Z,0.96
2017-12-11T07:17:03.859Z,0.95
2017-12-11T07:17:29.333Z,0.91
2017-12-11T07:17:54.833Z,0.92
2017-12-11T07:18:20.317Z,0.96
2017-12-11T07:18:45.812Z,0.87
2017-12-11T07:19:11.297Z,0.88
2017-12-11T07:19:36.820Z,0.94
2017-12-11T07:20:02.401Z,0.94
2017-12-11T07:20:27.872Z,1.01
2017-12-11T07:20:53.355Z,0.86
2017-12-11T07:21:18.876Z,0.88
2017-12-11T07:21:44.350Z,0.84
2017-12-11T07:22:09.856Z,0.91
2017-12-11T07:22:35.312Z,0.88
2017-12-11T07:23:00.819Z,0.91
2017-12-11T07:23:26.271Z,0.95
2017-12-11T07:23:51.735Z,0.92
2017-12-11T07:24:17.185Z,0.92
2017-12-11T07:24:42.690Z,0.95
2017-12-11T07:25:08.123Z,1.04
2017-12-11T07:25:33.615Z,0.87
2017-12-11T07:25:59.123Z,0.92
2017-12-11T07:26:24.622Z,0.84
2017-12-11T07:26:50.085Z,1.01
2017-12-11T07:27:15.580Z,0.95
2017-12-11T07:28:24.514Z,0.99
2017-12-11T07:28:50.013Z,0.98
2017-12-11T07:29:49.476Z,0.83
2017-12-11T07:30:15.042Z,0.87
2017-12-11T07:30:40.532Z,1.08
2017-12-11T07:31:45.127Z,0.98
2017-12-11T07:32:10.626Z,0.83
2017-12-11T07:32:36.120Z,0.92
2017-12-11T07:33:01.608Z,1.01
2017-12-11T07:33:27.101Z,0.81
2017-12-11T07:33:52.608Z,1.02
2017-12-11T07:34:18.067Z,0.92
2017-12-11T07:34:43.600Z,1.05
2017-12-11T07:35:09.100Z,0.86
2017-12-11T07:35:34.608Z,0.91
2017-12-11T07:36:00.106Z,0.92
2017-12-11T07:36:25.594Z,0.83
2017-12-11T07:37:34.404Z,0.84
2017-12-11T07:37:59.818Z,0.94
2017-12-11T07:38:25.307Z,0.92
2017-12-11T07:38:50.850Z,1.01
2017-12-11T07:39:16.363Z,0.88
2017-12-11T07:39:41.840Z,1.04
2017-12-11T07:40:07.314Z,0.98
2017-12-11T07:40:32.812Z,0.81
2017-12-11T07:40:58.297Z,0.88
2017-12-11T07:41:56.783Z,1.01
2017-12-11T07:42:22.284Z,0.92
2017-12-11T07:42:47.737Z,0.83
2017-12-11T07:43:13.254Z,0.99
2017-12-11T07:43:38.718Z,0.96
2017-12-11T07:44:04.213Z,0.96
2017-12-11T07:44:29.700Z,0.96
2017-12-11T07:44:55.215Z,0.87
2017-12-11T07:45:20.659Z,0.96
2017-12-11T07:45:46.149Z,0.91
2017-12-11T07:46:11.686Z,0.91
2017-12-11T07:46:37.172Z,0.86
2017-12-11T07:47:02.666Z,0.91
2017-12-11T07:47:28.166Z,0.98
2017-12-11T07:47:53.656Z,0.92
2017-12-11T07:48:19.169Z,0.96
2017-12-11T07:48:44.699Z,0.94
2017-12-11T07:49:10.231Z,0.92
2017-12-11T07:49:35.732Z,0.88
2017-12-11T07:50:01.190Z,0.91
2017-12-11T07:50:49.503Z,0.88
2017-12-11T07:51:15.013Z,0.98
2017-12-11T07:51:40.552Z,0.95
2017-12-11T07:52:06.033Z,0.94
2017-12-11T07:52:31.512Z,0.81
2017-12-11T07:52:57.013Z,0.95
2017-12-11T07:53:22.499Z,0.83
2017-12-11T07:53:47.987Z,0.84
2017-12-11T07:54:13.467Z,0.81
2017-12-11T07:54:38.920Z,0.88
2017-12-11T07:55:04.442Z,0.87
2017-12-11T07:56:08.128Z,0.83
2017-12-11T07:56:33.625Z,0.88
2017-12-11T07:56:59.097Z,0.83
2017-12-11T07:57:24.579Z,0.8
2017-12-11T07:57:50.070Z,0.91
2017-12-11T07:58:15.565Z,0.83
2017-12-11T07:58:41.111Z,0.83
2017-12-11T07:59:06.567Z,0.87
2017-12-11T07:59:32.045Z,0.92
2017-12-11T07:59:57.499Z,0.81
2017-12-11T08:00:23.047Z,0.94
2017-12-11T08:00:48.539Z,0.91
2017-12-11T08:01:14.062Z,0.81
2017-12-11T08:01:39.566Z,0.83
2017-12-11T08:02:05.002Z,0.77
2017-12-11T08:02:30.532Z,0.84
2017-12-11T08:02:56.028Z,0.8
2017-12-11T08:03:21.559Z,0.87
2017-12-11T08:03:47.128Z,0.8
2017-12-11T08:04:12.726Z,0.8
2017-12-11T08:04:38.243Z,0.8
2017-12-11T08:05:03.743Z,0.8
2017-12-11T08:05:29.242Z,0.78
2017-12-11T08:05:54.760Z,0.83
2017-12-11T08:06:20.246Z,0.77
2017-12-11T08:06:45.710Z,0.81
2017-12-11T08:07:11.236Z,0.86
2017-12-11T08:07:36.699Z,0.77
2017-12-11T08:08:02.198Z,0.81
2017-12-11T08:08:27.688Z,0.84
2017-12-11T08:08:53.211Z,0.83
2017-12-11T08:09:18.656Z,0.84
2017-12-11T08:09:44.134Z,0.81
2017-12-11T08:10:09.634Z,0.81
2017-12-11T08:10:35.140Z,0.81
2017-12-11T08:11:00.668Z,0.84
2017-12-11T08:11:26.147Z,0.77
2017-12-11T08:11:51.627Z,0.84
2017-12-11T08:12:17.133Z,0.8
2017-12-11T08:12:42.608Z,0.81
2017-12-11T08:13:08.090Z,0.77
2017-12-11T08:14:06.606Z,0.81
2017-12-11T08:14:32.100Z,0.8
2017-12-11T08:14:57.631Z,0.8
2017-12-11T08:15:23.178Z,0.74
2017-12-11T08:15:48.675Z,0.73
2017-12-11T08:16:14.191Z,0.8
2017-12-11T08:16:39.738Z,0.8
2017-12-11T08:17:05.207Z,0.8
2017-12-11T08:17:30.673Z,0.8
2017-12-11T08:17:56.192Z,0.78
2017-12-11T08:18:21.725Z,0.77
2017-12-11T08:18:47.233Z,0.83
2017-12-11T08:19:12.716Z,0.83
2017-12-11T08:19:38.206Z,0.83
2017-12-11T08:20:03.678Z,0.87
2017-12-11T08:20:29.185Z,0.86
2017-12-11T08:20:54.650Z,0.8
2017-12-11T08:21:20.153Z,0.84
2017-12-11T08:21:45.610Z,0.81
2017-12-11T08:22:11.148Z,0.86
2017-12-11T08:22:36.664Z,0.84
2017-12-11T08:23:02.150Z,0.84
2017-12-11T08:23:27.640Z,0.87
2017-12-11T08:23:53.151Z,0.78
2017-12-11T08:24:18.628Z,0.81
2017-12-11T08:24:44.097Z,0.74
2017-12-11T08:25:32.419Z,0.84
2017-12-11T08:25:57.887Z,0.8
2017-12-11T08:26:23.415Z,0.78
2017-12-11T08:27:11.709Z,0.8
2017-12-11T08:27:37.201Z,0.81
2017-12-11T08:28:02.695Z,0.8
2017-12-11T08:28:28.166Z,0.78
2017-12-11T08:28:53.701Z,0.81
2017-12-11T08:29:19.208Z,0.81
2017-12-11T08:30:07.497Z,0.76
2017-12-11T08:30:32.989Z,0.83
2017-12-11T08:30:58.495Z,0.74
2017-12-11T08:31:23.991Z,0.73
2017-12-11T08:31:49.480Z,0.8
2017-12-11T08:32:14.991Z,0.76
2017-12-11T08:32:40.479Z,0.77
2017-12-11T08:33:05.912Z,0.77
2017-12-11T08:34:14.594Z,0.78
2017-12-11T08:34:40.105Z,0.76
2017-12-11T08:35:05.587Z,0.81
2017-12-11T08:35:31.082Z,0.74
2017-12-11T08:35:56.589Z,0.76
2017-12-11T08:36:22.077Z,0.8
2017-12-11T08:36:47.578Z,0.78
2017-12-11T08:37:13.058Z,0.81
2017-12-11T08:37:38.551Z,0.78
2017-12-11T08:38:04.006Z,0.78
2017-12-11T08:38:29.512Z,0.73
2017-12-11T08:38:54.993Z,0.76
2017-12-11T08:39:20.468Z,0.84
2017-12-11T08:39:45.987Z,0.77
2017-12-11T08:40:11.472Z,0.86
2017-12-11T08:40:36.943Z,0.81
2017-12-11T08:41:02.404Z,0.84
2017-12-11T08:41:27.940Z,0.84
2017-12-11T08:42:22.341Z,0.88
2017-12-11T08:42:47.827Z,0.8
2017-12-11T08:43:13.318Z,0.78
2017-12-11T08:43:38.816Z,0.86
2017-12-11T08:44:04.302Z,0.81
2017-12-11T08:44:29.795Z,0.84
2017-12-11T08:44:55.310Z,0.81
2017-12-11T08:45:20.785Z,0.84
2017-12-11T08:45:46.290Z,0.78
2017-12-11T08:46:11.790Z,0.81
2017-12-11T08:46:37.257Z,0.83
2017-12-11T08:47:02.723Z,0.87
2017-12-11T08:47:28.194Z,0.8
2017-12-11T08:47:53.698Z,0.77
2017-12-11T08:48:19.297Z,0.88
2017-12-11T08:48:44.732Z,0.78
2017-12-11T08:49:10.212Z,0.81
2017-12-11T08:49:35.695Z,0.8
2017-12-11T08:50:01.329Z,0.84
2017-12-11T08:50:26.769Z,0.81
2017-12-11T08:50:52.235Z,0.84
2017-12-11T08:51:17.809Z,0.83
2017-12-11T08:51:43.299Z,0.83
2017-12-11T08:52:08.836Z,0.81
2017-12-11T08:52:34.302Z,0.87
2017-12-11T08:52:59.868Z,0.83
2017-12-11T08:53:25.441Z,0.86
2017-12-11T08:53:50.885Z,0.84
2017-12-11T08:54:16.360Z,0.86
2017-12-11T08:54:41.841Z,0.83
2017-12-11T08:55:07.346Z,0.83
2017-12-11T08:55:32.831Z,0.87
2017-12-11T08:55:58.354Z,0.83
2017-12-11T08:56:23.842Z,0.86
2017-12-11T08:56:49.440Z,0.84
2017-12-11T08:57:14.933Z,0.86
2017-12-11T08:57:40.456Z,0.86
2017-12-11T08:58:05.955Z,0.88
2017-12-11T08:58:31.419Z,0.83
2017-12-11T08:58:56.954Z,0.78
2017-12-11T08:59:22.458Z,0.8
2017-12-11T08:59:47.961Z,0.78
2017-12-11T09:00:13.559Z,0.76
2017-12-11T09:00:39.041Z,0.81
2017-12-11T09:01:04.581Z,0.84
2017-12-11T09:01:30.099Z,0.83
2017-12-11T09:01:55.638Z,0.84
2017-12-11T09:02:21.215Z,0.84
2017-12-11T09:02:46.722Z,0.78
2017-12-11T09:03:12.247Z,0.77
2017-12-11T09:03:37.764Z,0.81
2017-12-11T09:04:03.245Z,0.83
2017-12-11T09:04:28.771Z,0.78
2017-12-11T09:04:54.287Z,0.78
2017-12-11T09:05:19.822Z,0.78
2017-12-11T09:05:45.284Z,0.77
2017-12-11T09:06:10.782Z,0.8
2017-12-11T09:06:36.308Z,0.78
2017-12-11T09:07:01.951Z,0.84
2017-12-11T09:07:27.455Z,0.81
2017-12-11T09:07:53.063Z,0.8
2017-12-11T09:08:18.634Z,0.76
2017-12-11T09:08:44.119Z,0.86
2017-12-11T09:09:09.604Z,0.88
2017-12-11T09:09:35.057Z,0.84
2017-12-11T09:10:00.591Z,0.8
2017-12-11T09:10:26.099Z,0.83
2017-12-11T09:10:51.588Z,0.8
2017-12-11T09:11:17.041Z,0.8
2017-12-11T09:11:42.574Z,0.81
2017-12-11T09:12:08.032Z,0.8
2017-12-11T09:12:33.513Z,0.81
2017-12-11T09:12:59.010Z,0.78
2017-12-11T09:13:24.485Z,0.86
2017-12-11T09:13:49.969Z,0.88
2017-12-11T09:14:15.487Z,0.81
2017-12-11T09:14:40.971Z,0.88
2017-12-11T09:15:06.491Z,0.83
2017-12-11T09:16:04.988Z,0.81
2017-12-11T09:16:30.475Z,0.8
2017-12-11T09:16:55.945Z,0.83
2017-12-11T09:17:21.435Z,0.83
2017-12-11T09:17:46.938Z,0.78
2017-12-11T09:18:12.419Z,0.83
2017-12-11T09:18:37.911Z,0.81
2017-12-11T09:19:03.415Z,0.83
2017-12-11T09:19:28.934Z,0.76
2017-12-11T09:19:54.470Z,0.81
2017-12-11T09:20:19.948Z,0.83
2017-12-11T09:20:45.397Z,0.86
2017-12-11T09:21:10.900Z,0.77
2017-12-11T09:21:36.430Z,0.83
2017-12-11T09:22:01.928Z,0.78
2017-12-11T09:22:27.449Z,0.8
2017-12-11T09:22:52.949Z,0.83
2017-12-11T09:23:18.458Z,0.8
2017-12-11T09:23:43.899Z,0.83
2017-12-11T09:24:09.407Z,0.84
2017-12-11T09:24:34.943Z,0.83
2017-12-11T09:25:00.458Z,0.88
2017-12-11T09:25:26.004Z,0.84
2017-12-11T09:25:51.492Z,0.83
2017-12-11T09:26:16.960Z,0.77
2017-12-11T09:26:42.474Z,0.84
2017-12-11T09:27:07.953Z,0.84
2017-12-11T09:27:33.433Z,0.83
2017-12-11T09:28:37.018Z,0.84
2017-12-11T09:29:02.517Z,0.84
2017-12-11T09:29:28.000Z,0.8
2017-12-11T09:29:53.466Z,0.87
2017-12-11T09:30:18.938Z,0.87
2017-12-11T09:30:44.468Z,0.77
2017-12-11T09:31:09.948Z,0.84
2017-12-11T09:31:35.440Z,0.8
2017-12-11T09:32:00.959Z,0.84
2017-12-11T09:32:26.481Z,0.86
2017-12-11T09:32:51.947Z,0.91
2017-12-11T09:33:17.434Z,0.83
2017-12-11T09:33:42.942Z,0.84
2017-12-11T09:34:08.440Z,0.81
2017-12-11T09:34:33.968Z,0.78
2017-12-11T09:34:59.433Z,0.86
2017-12-11T09:35:24.882Z,0.81
2017-12-11T09:35:50.373Z,0.83
2017-12-11T09:36:15.870Z,0.84
2017-12-11T09:36:41.349Z,0.83
2017-12-11T09:37:06.819Z,0.8
2017-12-11T09:37:55.130Z,0.8
2017-12-11T09:38:20.628Z,0.8
2017-12-11T09:38:46.180Z,0.83
2017-12-11T09:39:11.733Z,0.84
2017-12-11T09:39:37.227Z,0.84
2017-12-11T09:40:02.736Z,0.83
2017-12-11T09:40:28.209Z,0.77
2017-12-11T09:40:53.682Z,0.86
2017-12-11T09:41:19.188Z,0.8
2017-12-11T09:41:44.746Z,0.8
2017-12-11T09:42:10.185Z,0.81
2017-12-11T09:42:35.707Z,0.86
2017-12-11T09:43:01.196Z,0.87
2017-12-11T09:43:26.709Z,0.84
2017-12-11T09:43:52.179Z,0.8
2017-12-11T09:44:17.679Z,0.8
2017-12-11T09:44:43.183Z,0.81
2017-12-11T09:45:08.699Z,0.77
2017-12-11T09:45:34.158Z,0.8
2017-12-11T09:45:59.681Z,0.83
2017-12-11T09:46:25.142Z,0.81
2017-12-11T09:46:50.665Z,0.81
2017-12-11T09:47:16.181Z,0.8
2017-12-11T09:47:41.661Z,0.84
2017-12-11T09:48:07.132Z,0.84
2017-12-11T09:48:32.650Z,0.88
2017-12-11T09:48:58.132Z,0.84
2017-12-11T09:49:51.549Z,0.84
2017-12-11T09:50:17.045Z,0.86
2017-12-11T09:50:42.539Z,0.8
2017-12-11T09:51:08.051Z,0.87
2017-12-11T09:51:33.528Z,0.94
2017-12-11T09:51:59.025Z,0.83
2017-12-11T09:52:24.523Z,0.84
2017-12-11T09:52:50.038Z,0.94
2017-12-11T09:53:15.511Z,0.92
2017-12-11T09:53:41.022Z,0.95
2017-12-11T09:54:06.466Z,0.81
2017-12-11T09:54:31.943Z,0.96
2017-12-11T09:54:57.428Z,0.92
2017-12-11T09:55:22.935Z,0.95
2017-12-11T09:55:48.414Z,1.01
2017-12-11T09:56:13.886Z,0.94
2017-12-11T09:56:39.374Z,0.92
2017-12-11T09:57:04.844Z,0.92
2017-12-11T09:57:30.328Z,0.92
2017-12-11T09:57:55.831Z,0.96
2017-12-11T09:58:21.316Z,0.88
2017-12-11T09:58:46.839Z,0.95
2017-12-11T09:59:12.336Z,0.94
2017-12-11T09:59:37.834Z,0.95
2017-12-11T10:00:03.320Z,0.92
2017-12-11T10:00:28.864Z,0.92
2017-12-11T10:00:54.327Z,1.01
2017-12-11T10:01:19.777Z,0.96
2017-12-11T10:01:45.289Z,1.02
2017-12-11T10:02:10.787Z,0.92
2017-12-11T10:02:36.262Z,0.96
2017-12-11T10:03:01.790Z,0.91
2017-12-11T10:03:27.336Z,0.86
2017-12-11T10:03:52.846Z,1.02
2017-12-11T10:04:18.370Z,0.86
2017-12-11T10:05:27.678Z,1.04
2017-12-11T10:05:53.172Z,1.02
2017-12-11T10:06:18.652Z,0.84
2017-12-11T10:06:44.117Z,0.87
2017-12-11T10:07:09.575Z,0.91
2017-12-11T10:07:35.086Z,0.96
2017-12-11T10:08:00.559Z,0.87
2017-12-11T10:08:26.103Z,0.92
2017-12-11T10:08:51.639Z,1.01
2017-12-11T10:09:17.154Z,1.02
2017-12-11T10:09:42.714Z,0.96
2017-12-11T10:10:31.016Z,0.86
2017-12-11T10:10:56.483Z,0.91
2017-12-11T10:11:21.974Z,0.95
2017-12-11T10:11:47.505Z,0.87
2017-12-11T10:12:12.964Z,0.92
2017-12-11T10:12:38.478Z,0.98
2017-12-11T10:13:03.931Z,0.94
2017-12-11T10:13:29.408Z,0.86
2017-12-11T10:13:54.931Z,1.05
2017-12-11T10:14:20.472Z,0.92
2017-12-11T10:14:45.956Z,0.91
2017-12-11T10:15:11.446Z,0.91
2017-12-11T10:15:36.964Z,0.96
2017-12-11T10:16:02.450Z,0.87
2017-12-11T10:16:27.948Z,0.88
2017-12-11T10:16:53.521Z,0.86
2017-12-11T10:17:19.004Z,0.95
2017-12-11T10:17:44.549Z,0.98
2017-12-11T10:18:10.056Z,1.01
2017-12-11T10:18:35.528Z,0.92
2017-12-11T10:19:01.032Z,0.86
2017-12-11T10:19:26.502Z,0.92
2017-12-11T10:19:52.009Z,0.92
2017-12-11T10:20:17.511Z,1.01
2017-12-11T10:20:43.010Z,0.98
2017-12-11T10:21:08.494Z,0.86
2017-12-11T10:21:33.995Z,0.87
2017-12-11T10:21:59.459Z,1.06
2017-12-11T10:23:08.147Z,0.83
2017-12-11T10:23:33.632Z,0.94
2017-12-11T10:23:59.109Z,0.98
2017-12-11T10:24:24.644Z,0.87
2017-12-11T10:24:50.136Z,0.84
2017-12-11T10:25:15.671Z,0.91
2017-12-11T10:25:41.168Z,0.91
2017-12-11T10:26:06.689Z,0.83
2017-12-11T10:26:32.186Z,0.86
2017-12-11T10:26:57.666Z,0.92
2017-12-11T10:27:23.197Z,0.92
2017-12-11T10:27:48.710Z,0.99
2017-12-11T10:28:14.218Z,0.91
2017-12-11T10:28:39.707Z,0.92
2017-12-11T10:29:05.196Z,0.94
2017-12-11T10:29:30.714Z,0.95
2017-12-11T10:29:56.204Z,0.96
2017-12-11T10:30:21.668Z,0.88
2017-12-11T10:30:47.184Z,0.95
2017-12-11T10:31:12.669Z,0.95
2017-12-11T10:31:38.212Z,0.95
2017-12-11T10:32:03.702Z,0.83
2017-12-11T10:32:52.014Z,0.92
2017-12-11T10:33:17.525Z,0.99
2017-12-11T10:33:43.020Z,0.94
2017-12-11T10:34:08.470Z,0.91
2017-12-11T10:34:33.968Z,0.92
2017-12-11T10:34:59.458Z,0.98
2017-12-11T10:35:24.950Z,0.77
2017-12-11T10:35:50.443Z,1.01
2017-12-11T10:36:15.943Z,0.88
2017-12-11T10:36:41.467Z,0.95
2017-12-11T10:37:06.951Z,0.91
2017-12-11T10:37:32.472Z,0.92
2017-12-11T10:37:57.961Z,0.94
2017-12-11T10:38:23.516Z,0.99
2017-12-11T10:38:49.015Z,1.01
2017-12-11T10:39:14.531Z,0.83
2017-12-11T10:39:40.056Z,0.95
2017-12-11T10:40:05.486Z,0.95
2017-12-11T10:40:30.989Z,0.91
2017-12-11T10:40:56.495Z,0.83
2017-12-11T10:41:21.998Z,0.95
2017-12-11T10:41:47.464Z,0.95
2017-12-11T10:42:51.131Z,0.95
2017-12-11T10:43:16.606Z,0.96
2017-12-11T10:43:42.074Z,0.91
2017-12-11T10:44:07.617Z,0.98
2017-12-11T10:44:33.083Z,0.94
2017-12-11T10:44:58.606Z,0.87
2017-12-11T10:45:24.059Z,0.91
2017-12-11T10:45:49.570Z,1.01
2017-12-11T10:46:37.860Z,0.95
2017-12-11T10:47:03.351Z,0.96
2017-12-11T10:47:28.833Z,0.98
2017-12-11T10:47:54.297Z,0.91
2017-12-11T10:48:19.754Z,0.94
2017-12-11T10:48:45.268Z,0.95
2017-12-11T10:49:10.753Z,0.94
2017-12-11T10:49:36.278Z,0.88
2017-12-11T10:50:34.783Z,0.87
2017-12-11T10:51:00.281Z,0.83
2017-12-11T10:51:25.770Z,0.84
2017-12-11T10:51:51.262Z,0.87
2017-12-11T10:52:16.754Z,0.83
2017-12-11T10:52:42.226Z,0.81
2017-12-11T10:53:07.762Z,0.83
2017-12-11T10:53:33.262Z,0.83
2017-12-11T10:53:58.756Z,0.91
2017-12-11T10:54:24.229Z,0.8
2017-12-11T10:54:49.682Z,0.87
2017-12-11T10:55:48.255Z,0.96
2017-12-11T10:56:13.726Z,0.86
2017-12-11T10:56:39.225Z,0.87
2017-12-11T10:57:04.697Z,0.87
2017-12-11T10:57:30.267Z,0.78
2017-12-11T10:57:55.715Z,0.83
2017-12-11T10:58:21.217Z,0.78
2017-12-11T10:58:46.754Z,0.87
2017-12-11T10:59:12.266Z,0.81